Time;durP1;ratioP1;P1;durP2;ratioP2;P2;SDS_P1;SDS_P2;PMS_P1;PMS_P2;Temp;Humidity;BMP_temperature;BMP_pressure;BME280_temperature;BME280_humidity;BME280_pressure;Samples;Min_cycle;Max_cycle;Signal;HPM_P1;HPM_P2
2023/01/23 00:01:25;;;;;;;13.05;6.20;;;2.60;99.90;;;;;;5046497;28;20091;-64
2023/01/23 00:03:52;;;;;;;15.35;6.43;;;2.60;99.90;;;;;;5046339;28;20047;-64
2023/01/23 00:06:18;;;;;;;11.43;6.00;;;2.60;99.90;;;;;;5047643;28;20053;-64
2023/01/23 00:08:45;;;;;;;12.82;6.90;;;2.60;99.90;;;;;;5047134;28;20049;-64
2023/01/23 00:11:15;;;;;;;11.48;6.45;;;2.60;99.90;;;;;;5024861;28;20116;-63
2023/01/23 00:13:40;;;;;;;12.35;6.03;;;2.60;99.90;;;;;;5043621;28;20041;-63
2023/01/23 00:16:12;;;;;;;13.10;6.72;;;2.60;99.90;;;;;;5044195;28;20052;-64
2023/01/23 00:18:38;;;;;;;18.55;6.65;;;2.60;99.90;;;;;;5042791;28;20503;-62
2023/01/23 00:21:10;;;;;;;14.05;6.63;;;2.60;99.90;;;;;;5044245;28;20044;-64
2023/01/23 00:23:36;;;;;;;12.85;6.57;;;2.60;99.90;;;;;;5039900;28;20160;-64
2023/01/23 00:26:06;;;;;;;13.13;6.03;;;2.60;99.90;;;;;;5039985;28;20060;-64
2023/01/23 00:28:33;;;;;;;17.15;6.55;;;2.60;99.90;;;;;;5036396;28;20098;-63
2023/01/23 00:31:20;;;;;;;11.82;6.10;;;2.60;99.90;;;;;;5038832;28;20154;-64
2023/01/23 00:33:46;;;;;;;15.75;7.18;;;2.60;99.90;;;;;;5040649;28;20044;-63
2023/01/23 00:36:13;;;;;;;13.13;6.07;;;2.60;99.90;;;;;;5025402;28;20395;-62
2023/01/23 00:38:40;;;;;;;19.23;6.63;;;2.60;99.90;;;;;;5021077;28;20044;-64
2023/01/23 00:41:06;;;;;;;17.35;6.65;;;2.60;99.90;;;;;;5038936;28;20045;-63
2023/01/23 00:43:33;;;;;;;11.73;6.63;;;2.60;99.90;;;;;;5024347;28;20142;-64
2023/01/23 00:45:59;;;;;;;15.55;6.40;;;2.50;99.90;;;;;;5040052;28;20049;-64
2023/01/23 00:48:25;;;;;;;14.05;7.30;;;2.60;99.90;;;;;;5027258;28;20056;-64
2023/01/23 00:50:51;;;;;;;13.15;6.30;;;2.60;99.90;;;;;;5043806;28;20040;-64
2023/01/23 00:53:17;;;;;;;13.63;6.32;;;2.60;99.90;;;;;;5044135;28;20059;-64
2023/01/23 00:55:43;;;;;;;14.10;6.43;;;2.60;99.90;;;;;;5042265;28;20033;-64
2023/01/23 00:58:09;;;;;;;14.50;6.43;;;2.60;99.90;;;;;;5043827;28;20045;-64
2023/01/23 01:00:36;;;;;;;20.67;6.45;;;2.60;99.90;;;;;;5043436;28;20626;-64
2023/01/23 01:03:01;;;;;;;12.55;6.18;;;2.60;99.90;;;;;;5027217;28;20098;-64
2023/01/23 01:05:27;;;;;;;14.90;6.63;;;2.60;99.90;;;;;;5044262;28;20582;-61
2023/01/23 01:07:53;;;;;;;12.43;6.65;;;2.60;99.90;;;;;;5027082;28;20048;-64
2023/01/23 01:10:19;;;;;;;11.77;6.53;;;2.60;99.90;;;;;;5021785;28;20139;-64
2023/01/23 01:12:45;;;;;;;14.35;5.95;;;2.60;99.90;;;;;;5042293;28;20080;-64
2023/01/23 01:15:12;;;;;;;11.57;6.10;;;2.60;99.90;;;;;;5044710;28;20041;-64
2023/01/23 01:17:38;;;;;;;12.27;5.68;;;2.60;99.90;;;;;;5040692;28;20049;-64
2023/01/23 01:20:05;;;;;;;10.88;5.85;;;2.50;99.90;;;;;;5040909;28;20036;-62
2023/01/23 01:22:32;;;;;;;15.05;5.93;;;2.60;99.90;;;;;;5039848;28;20091;-62
2023/01/23 01:24:59;;;;;;;14.00;6.22;;;2.60;99.90;;;;;;5013083;28;20069;-63
2023/01/23 01:27:24;;;;;;;11.75;5.88;;;2.60;99.90;;;;;;5038325;28;20110;-63
2023/01/23 01:29:50;;;;;;;11.15;6.18;;;2.60;99.90;;;;;;5038844;28;20045;-64
2023/01/23 01:32:16;;;;;;;15.68;6.45;;;2.60;99.90;;;;;;5040283;28;20055;-64
2023/01/23 01:34:42;;;;;;;12.40;7.00;;;2.60;99.90;;;;;;5040448;28;20094;-62
2023/01/23 01:37:08;;;;;;;12.63;6.05;;;2.60;99.90;;;;;;5038454;28;20053;-61
2023/01/23 01:39:33;;;;;;;13.70;6.20;;;2.60;99.90;;;;;;5040144;28;20545;-64
2023/01/23 01:41:59;;;;;;;13.77;6.30;;;2.50;99.90;;;;;;5025638;28;20048;-64
2023/01/23 01:44:25;;;;;;;14.88;6.00;;;2.60;99.90;;;;;;5016048;28;20132;-64
2023/01/23 01:46:51;;;;;;;11.82;5.68;;;2.60;99.90;;;;;;5018059;28;20049;-64
2023/01/23 01:49:29;;;;;;;13.13;5.80;;;2.60;99.90;;;;;;5023390;28;20076;-64
2023/01/23 01:52:01;;;;;;;14.75;6.30;;;2.50;99.90;;;;;;5040443;28;20080;-62
2023/01/23 01:54:36;;;;;;;13.98;6.15;;;2.60;99.90;;;;;;5039660;28;20455;-61
2023/01/23 01:57:07;;;;;;;13.07;6.63;;;2.50;99.90;;;;;;5037611;28;20049;-64
2023/01/23 01:59:42;;;;;;;14.52;6.60;;;2.60;99.90;;;;;;5040284;28;20416;-63
2023/01/23 02:02:15;;;;;;;11.63;6.00;;;2.60;99.90;;;;;;5023971;28;20518;-63
2023/01/23 02:04:50;;;;;;;18.33;7.13;;;2.50;99.90;;;;;;5035611;28;20075;-64
2023/01/23 02:07:24;;;;;;;14.75;6.53;;;2.60;99.90;;;;;;5037770;28;20059;-64
2023/01/23 02:09:51;;;;;;;13.68;5.95;;;2.50;99.90;;;;;;5039082;28;20072;-63
2023/01/23 02:12:17;;;;;;;11.73;6.10;;;2.50;99.90;;;;;;5035763;28;20056;-64
2023/01/23 02:14:43;;;;;;;13.35;5.63;;;2.50;99.90;;;;;;5036150;28;20053;-64
2023/01/23 02:17:10;;;;;;;14.63;6.43;;;2.50;99.90;;;;;;5023609;28;20044;-63
2023/01/23 02:19:49;;;;;;;12.75;5.95;;;2.50;99.90;;;;;;5041728;28;20553;-64
2023/01/23 02:22:46;;;;;;;12.95;6.05;;;2.50;99.90;;;;;;5043228;28;20055;-64
2023/01/23 02:25:40;;;;;;;12.68;5.80;;;2.50;99.90;;;;;;5043039;28;20533;-64
2023/01/23 02:28:06;;;;;;;11.52;5.72;;;2.50;99.90;;;;;;5039830;28;20067;-64
2023/01/23 02:30:32;;;;;;;11.93;5.93;;;2.50;99.90;;;;;;5044539;28;20037;-62
2023/01/23 02:33:09;;;;;;;12.75;5.80;;;2.50;99.90;;;;;;5040695;28;20469;-62
2023/01/23 02:35:36;;;;;;;9.68;6.13;;;2.50;99.90;;;;;;5042143;28;20495;-64
2023/01/23 02:38:04;;;;;;;10.75;5.82;;;2.50;99.90;;;;;;5041340;28;20045;-64
2023/01/23 02:40:36;;;;;;;12.52;6.45;;;2.50;99.90;;;;;;5033250;28;20053;-64
2023/01/23 02:43:08;;;;;;;11.23;6.30;;;2.50;99.90;;;;;;5027151;28;20526;-64
2023/01/23 02:45:34;;;;;;;14.65;6.32;;;2.50;99.90;;;;;;5044029;28;20060;-63
2023/01/23 02:48:00;;;;;;;11.93;6.75;;;2.50;99.90;;;;;;5041980;28;20049;-62
2023/01/23 02:50:27;;;;;;;13.73;6.63;;;2.50;99.90;;;;;;5044151;28;20497;-64
2023/01/23 02:52:53;;;;;;;16.80;6.88;;;2.50;99.90;;;;;;5044261;28;20044;-63
2023/01/23 02:55:20;;;;;;;14.60;6.60;;;2.40;99.90;;;;;;5015722;28;20127;-64
2023/01/23 02:57:46;;;;;;;14.13;6.85;;;2.40;99.90;;;;;;5044722;28;20511;-64
2023/01/23 03:00:18;;;;;;;9.82;6.55;;;2.40;99.90;;;;;;5041954;28;20044;-64
2023/01/23 03:02:47;;;;;;;14.00;7.10;;;2.50;99.90;;;;;;5041842;28;20052;-64
2023/01/23 03:05:13;;;;;;;10.90;6.93;;;2.40;99.90;;;;;;5041504;28;20317;-63
2023/01/23 03:07:39;;;;;;;11.10;6.80;;;2.40;99.90;;;;;;5022683;28;20080;-63
2023/01/23 03:10:06;;;;;;;16.77;6.63;;;2.50;99.90;;;;;;5040895;28;20079;-63
2023/01/23 03:12:32;;;;;;;12.40;6.47;;;2.40;99.90;;;;;;5043827;28;20503;-62
2023/01/23 03:14:58;;;;;;;15.43;6.53;;;2.50;99.90;;;;;;5042443;28;20079;-64
2023/01/23 03:17:24;;;;;;;12.93;6.07;;;2.40;99.90;;;;;;5043920;28;20056;-64
2023/01/23 03:19:50;;;;;;;12.00;6.25;;;2.40;99.90;;;;;;5042432;28;20040;-64
2023/01/23 03:22:16;;;;;;;13.38;6.50;;;2.40;99.90;;;;;;5039083;28;20088;-64
2023/01/23 03:24:42;;;;;;;12.20;6.53;;;2.40;99.90;;;;;;5042323;28;20103;-63
2023/01/23 03:27:08;;;;;;;11.93;7.05;;;2.50;99.90;;;;;;5040006;28;20064;-64
2023/01/23 03:32:19;;;;;;;13.07;6.82;;;2.40;99.90;;;;;;5043523;28;20080;-63
2023/01/23 03:34:45;;;;;;;11.98;6.60;;;2.40;99.90;;;;;;5025259;28;20037;-62
2023/01/23 03:37:11;;;;;;;11.10;6.75;;;2.50;99.90;;;;;;5023321;28;20516;-64
2023/01/23 03:42:22;;;;;;;12.32;6.55;;;2.50;99.90;;;;;;5022823;28;20087;-62
2023/01/23 03:44:48;;;;;;;12.18;6.10;;;2.50;99.90;;;;;;5023813;28;20044;-64
2023/01/23 03:47:14;;;;;;;11.57;6.90;;;2.40;99.90;;;;;;5003088;28;20077;-64
2023/01/23 03:49:39;;;;;;;12.15;6.30;;;2.50;99.90;;;;;;5041590;28;20175;-62
2023/01/23 03:52:05;;;;;;;13.68;6.65;;;2.50;99.90;;;;;;5040556;28;20126;-64
2023/01/23 03:54:31;;;;;;;12.35;6.13;;;2.50;99.90;;;;;;5034816;28;20599;-64
2023/01/23 03:56:57;;;;;;;13.98;6.38;;;2.50;99.90;;;;;;5040693;28;20044;-63
2023/01/23 03:59:23;;;;;;;9.98;6.25;;;2.50;99.90;;;;;;5043199;28;20115;-64
2023/01/23 04:01:49;;;;;;;13.18;6.75;;;2.50;99.90;;;;;;5024180;28;20045;-64
2023/01/23 04:04:15;;;;;;;13.05;6.40;;;2.50;99.90;;;;;;5041774;28;20109;-64
2023/01/23 04:06:41;;;;;;;12.07;6.18;;;2.50;99.90;;;;;;5040823;28;21679;-63
2023/01/23 04:09:06;;;;;;;8.38;5.65;;;2.50;99.90;;;;;;5040974;28;20041;-64
2023/01/23 04:11:32;;;;;;;12.88;6.10;;;2.50;99.90;;;;;;4999689;28;20049;-63
2023/01/23 04:13:58;;;;;;;13.70;6.18;;;2.50;99.90;;;;;;5041863;28;20069;-64
2023/01/23 04:16:24;;;;;;;12.55;6.55;;;2.50;99.90;;;;;;5046265;28;20056;-62
2023/01/23 04:18:50;;;;;;;14.15;6.78;;;2.50;99.90;;;;;;5028836;28;20384;-62
2023/01/23 04:21:16;;;;;;;9.98;6.13;;;2.50;99.90;;;;;;5024614;28;20127;-64
2023/01/23 04:23:42;;;;;;;11.30;6.32;;;2.40;99.90;;;;;;5042553;28;20060;-63
2023/01/23 04:26:07;;;;;;;12.60;6.60;;;2.40;99.90;;;;;;5043634;28;20049;-64
2023/01/23 04:28:33;;;;;;;12.35;6.35;;;2.40;99.90;;;;;;5042472;28;20045;-63
2023/01/23 04:30:59;;;;;;;12.68;7.22;;;2.50;99.90;;;;;;5043894;28;20483;-62
2023/01/23 04:33:25;;;;;;;11.75;6.75;;;2.50;99.90;;;;;;5045432;28;20053;-64
2023/01/23 04:35:57;;;;;;;12.05;6.40;;;2.50;99.90;;;;;;5043194;28;20041;-64
2023/01/23 04:38:25;;;;;;;10.70;6.15;;;2.40;99.90;;;;;;5026197;28;20041;-64
2023/01/23 04:40:51;;;;;;;11.10;6.55;;;2.40;99.90;;;;;;5040985;28;20032;-62
2023/01/23 04:43:17;;;;;;;10.90;6.45;;;2.40;99.90;;;;;;5045786;28;20131;-64
2023/01/23 04:45:42;;;;;;;12.88;6.28;;;2.50;99.90;;;;;;5041539;28;20095;-64
2023/01/23 04:48:09;;;;;;;14.48;7.68;;;2.50;99.90;;;;;;5039244;28;20128;-64
2023/01/23 04:50:35;;;;;;;15.98;7.38;;;2.40;99.90;;;;;;5040457;28;20056;-63
2023/01/23 04:53:02;;;;;;;12.90;7.72;;;2.40;99.90;;;;;;5020330;28;20049;-63
2023/01/23 04:55:28;;;;;;;14.82;6.75;;;2.40;99.90;;;;;;5024122;28;20707;-62
2023/01/23 04:57:54;;;;;;;13.40;7.35;;;2.50;99.90;;;;;;5042909;28;20045;-64
2023/01/23 05:00:20;;;;;;;21.77;8.25;;;2.40;99.90;;;;;;5041049;28;20647;-64
2023/01/23 05:02:48;;;;;;;14.48;7.35;;;2.50;99.90;;;;;;5034289;28;20048;-63
2023/01/23 05:05:16;;;;;;;14.57;7.85;;;2.40;99.90;;;;;;5038517;28;20049;-64
2023/01/23 05:07:42;;;;;;;16.02;8.40;;;2.50;99.90;;;;;;5035076;28;20088;-63
2023/01/23 05:10:09;;;;;;;17.30;8.65;;;2.50;99.90;;;;;;5038530;28;20053;-62
2023/01/23 05:12:35;;;;;;;18.20;8.50;;;2.50;99.90;;;;;;5039214;28;20076;-64
2023/01/23 05:15:01;;;;;;;15.60;8.75;;;2.50;99.90;;;;;;5040186;28;20186;-63
2023/01/23 05:17:27;;;;;;;14.65;7.43;;;2.50;99.90;;;;;;5041145;28;20045;-63
2023/01/23 05:19:52;;;;;;;18.17;8.50;;;2.50;99.90;;;;;;5037921;28;20503;-64
2023/01/23 05:22:18;;;;;;;14.55;8.23;;;2.50;99.90;;;;;;5040287;28;20049;-62
2023/01/23 05:24:44;;;;;;;15.27;8.63;;;2.50;99.90;;;;;;5038734;28;20052;-63
2023/01/23 05:27:11;;;;;;;15.05;7.45;;;2.50;99.90;;;;;;5039973;28;20054;-62
2023/01/23 05:29:37;;;;;;;16.45;8.32;;;2.50;99.90;;;;;;5021731;28;20110;-62
2023/01/23 05:32:03;;;;;;;13.57;8.32;;;2.50;99.90;;;;;;5038227;28;20142;-64
2023/01/23 05:34:29;;;;;;;16.33;8.48;;;2.50;99.90;;;;;;5022884;28;20045;-64
2023/01/23 05:36:55;;;;;;;12.27;7.53;;;2.50;99.90;;;;;;4999853;28;20522;-64
2023/01/23 05:39:21;;;;;;;14.27;8.02;;;2.50;99.90;;;;;;5037430;28;20048;-64
2023/01/23 05:41:47;;;;;;;16.98;8.40;;;2.50;99.90;;;;;;5038892;28;20086;-63
2023/01/23 05:44:13;;;;;;;13.02;7.65;;;2.50;99.90;;;;;;5038000;28;20545;-64
2023/01/23 05:46:39;;;;;;;14.40;7.95;;;2.50;99.90;;;;;;5015346;28;20099;-64
2023/01/23 05:49:05;;;;;;;11.95;7.75;;;2.60;99.90;;;;;;5041754;28;20056;-61
2023/01/23 05:51:32;;;;;;;20.27;8.60;;;2.50;99.90;;;;;;5022620;28;21143;-64
2023/01/23 05:53:59;;;;;;;11.90;8.38;;;2.50;99.90;;;;;;5021495;28;20049;-64
2023/01/23 05:56:28;;;;;;;14.90;8.57;;;2.50;99.90;;;;;;5038664;28;20052;-64
2023/01/23 05:58:54;;;;;;;13.32;7.93;;;2.50;99.90;;;;;;5039644;28;20083;-64
2023/01/23 06:01:21;;;;;;;19.13;8.90;;;2.50;99.90;;;;;;5039898;28;20038;-64
2023/01/23 06:03:47;;;;;;;16.63;8.57;;;2.50;99.90;;;;;;5036734;28;20056;-63
2023/01/23 06:06:13;;;;;;;14.18;8.75;;;2.50;99.90;;;;;;5017817;28;20135;-64
2023/01/23 06:08:39;;;;;;;15.95;8.23;;;2.50;99.90;;;;;;5022792;28;20457;-64
2023/01/23 06:11:05;;;;;;;13.07;8.05;;;2.50;99.90;;;;;;5032247;28;20103;-62
2023/01/23 06:13:31;;;;;;;17.23;9.27;;;2.50;99.90;;;;;;5013599;28;20087;-64
2023/01/23 06:15:57;;;;;;;12.55;7.97;;;2.50;99.90;;;;;;5041649;28;20037;-64
2023/01/23 06:18:23;;;;;;;14.88;8.90;;;2.50;99.90;;;;;;5038209;28;20136;-64
2023/01/23 06:20:48;;;;;;;14.88;8.40;;;2.50;99.90;;;;;;5041914;28;20373;-62
2023/01/23 06:23:15;;;;;;;14.75;8.45;;;2.50;99.90;;;;;;5041336;28;20040;-63
2023/01/23 06:25:41;;;;;;;13.85;8.05;;;2.50;99.90;;;;;;5018495;28;20087;-64
2023/01/23 06:28:07;;;;;;;15.57;8.88;;;2.50;99.90;;;;;;5037151;28;20044;-63
2023/01/23 06:30:33;;;;;;;14.25;8.32;;;2.50;99.90;;;;;;5019300;28;20167;-63
2023/01/23 06:32:59;;;;;;;13.02;8.18;;;2.50;99.90;;;;;;5022125;28;20076;-64
2023/01/23 06:35:25;;;;;;;13.82;8.52;;;2.50;99.90;;;;;;5035656;28;20037;-63
2023/01/23 06:37:51;;;;;;;15.45;9.30;;;2.50;99.90;;;;;;5032917;28;20056;-62
2023/01/23 06:40:17;;;;;;;13.75;8.93;;;2.50;99.90;;;;;;5036992;28;20119;-62
2023/01/23 06:42:42;;;;;;;14.07;8.63;;;2.50;99.90;;;;;;5034106;28;20056;-64
2023/01/23 06:45:10;;;;;;;16.48;8.85;;;2.50;99.90;;;;;;5015539;28;20081;-64
2023/01/23 06:47:36;;;;;;;16.98;9.05;;;2.50;99.90;;;;;;5039422;28;20076;-64
2023/01/23 06:50:03;;;;;;;19.38;9.70;;;2.50;99.90;;;;;;5041214;28;20128;-64
2023/01/23 06:52:29;;;;;;;14.65;8.88;;;2.50;99.90;;;;;;5004359;28;20049;-62
2023/01/23 06:54:55;;;;;;;15.00;9.20;;;2.50;99.90;;;;;;5043279;28;20049;-62
2023/01/23 06:57:21;;;;;;;15.48;9.48;;;2.50;99.90;;;;;;5036182;28;20056;-64
2023/01/23 06:59:47;;;;;;;17.83;10.00;;;2.50;99.90;;;;;;5040797;28;20041;-64
2023/01/23 07:02:13;;;;;;;19.40;10.00;;;2.50;99.90;;;;;;5039762;28;20553;-64
2023/01/23 07:04:39;;;;;;;17.75;9.90;;;2.50;99.90;;;;;;5041355;28;20041;-64
2023/01/23 07:07:05;;;;;;;22.42;9.82;;;2.50;99.90;;;;;;5038682;28;20045;-62
2023/01/23 07:09:31;;;;;;;17.38;9.75;;;2.50;99.90;;;;;;5034731;28;20053;-62
2023/01/23 07:11:57;;;;;;;17.67;10.05;;;2.50;99.90;;;;;;5014840;28;20057;-64
2023/01/23 07:14:25;;;;;;;14.63;9.38;;;2.50;99.90;;;;;;5034049;28;20492;-61
2023/01/23 07:16:53;;;;;;;13.65;9.68;;;2.50;99.90;;;;;;5040480;28;20551;-62
2023/01/23 07:19:19;;;;;;;19.52;9.63;;;2.50;99.90;;;;;;5043109;28;20102;-62
2023/01/23 07:21:48;;;;;;;16.70;10.13;;;2.50;99.90;;;;;;5039055;28;20037;-60
2023/01/23 07:24:13;;;;;;;19.35;10.50;;;2.50;99.90;;;;;;5040048;28;20049;-62
2023/01/23 07:26:39;;;;;;;18.05;10.48;;;2.50;99.90;;;;;;5043913;28;20045;-62
2023/01/23 07:29:08;;;;;;;18.20;10.90;;;2.50;99.90;;;;;;5047504;28;20459;-62
2023/01/23 07:31:35;;;;;;;18.65;10.48;;;2.50;99.90;;;;;;5024593;28;20134;-62
2023/01/23 07:34:00;;;;;;;20.40;10.63;;;2.50;99.90;;;;;;5045562;28;20045;-62
2023/01/23 07:36:27;;;;;;;16.40;10.82;;;2.50;99.90;;;;;;5046772;28;20541;-62
2023/01/23 07:38:54;;;;;;;16.60;10.82;;;2.60;99.90;;;;;;5046268;28;20052;-62
2023/01/23 07:41:20;;;;;;;20.15;10.90;;;2.50;99.90;;;;;;5041032;28;20043;-62
2023/01/23 07:43:46;;;;;;;17.88;10.60;;;2.50;99.90;;;;;;5047640;28;20510;-62
2023/01/23 07:46:12;;;;;;;19.95;10.63;;;2.60;99.90;;;;;;5047150;28;20041;-62
2023/01/23 07:48:38;;;;;;;16.70;10.43;;;2.50;99.90;;;;;;5045773;28;20691;-62
2023/01/23 07:51:04;;;;;;;16.50;10.00;;;2.50;99.90;;;;;;5043208;28;20044;-62
2023/01/23 07:53:31;;;;;;;19.25;10.98;;;2.60;99.90;;;;;;5045340;28;20495;-62
2023/01/23 07:55:56;;;;;;;16.05;10.23;;;2.50;99.90;;;;;;5044936;28;20045;-62
2023/01/23 07:58:22;;;;;;;16.75;10.68;;;2.50;99.90;;;;;;5045401;28;20044;-61
2023/01/23 08:00:48;;;;;;;16.70;10.35;;;2.50;99.90;;;;;;5043622;28;20415;-61
2023/01/23 08:03:14;;;;;;;17.88;10.57;;;2.50;99.90;;;;;;5018762;28;20072;-62
2023/01/23 08:05:40;;;;;;;18.35;10.07;;;2.50;99.90;;;;;;5043862;28;20029;-61
2023/01/23 08:08:06;;;;;;;17.15;10.02;;;2.60;99.90;;;;;;5025259;28;20543;-62
2023/01/23 08:10:31;;;;;;;17.40;9.68;;;2.60;99.90;;;;;;5043450;28;20629;-62
2023/01/23 08:12:57;;;;;;;16.48;10.02;;;2.60;99.90;;;;;;5027931;28;20127;-62
2023/01/23 08:15:23;;;;;;;16.15;10.05;;;2.60;99.90;;;;;;5033694;28;20048;-62
2023/01/23 08:17:49;;;;;;;15.07;9.70;;;2.50;99.90;;;;;;5043168;28;20044;-62
2023/01/23 08:20:15;;;;;;;17.98;10.35;;;2.60;99.90;;;;;;5019067;28;20048;-62
2023/01/23 08:22:40;;;;;;;14.10;9.18;;;2.60;99.90;;;;;;5029468;28;20123;-61
2023/01/23 08:25:09;;;;;;;16.42;9.90;;;2.60;99.90;;;;;;5044371;28;21084;-62
2023/01/23 08:27:36;;;;;;;17.83;9.98;;;2.60;99.90;;;;;;5046182;28;20337;-62
2023/01/23 08:30:03;;;;;;;16.50;9.75;;;2.60;99.90;;;;;;5027592;28;20045;-61
2023/01/23 08:32:29;;;;;;;14.18;9.25;;;2.60;99.90;;;;;;5044570;28;20045;-61
2023/01/23 08:34:55;;;;;;;14.38;9.65;;;2.60;99.90;;;;;;5027590;28;20040;-61
2023/01/23 08:37:21;;;;;;;13.52;9.52;;;2.60;99.90;;;;;;5041264;28;20475;-61
2023/01/23 08:39:46;;;;;;;11.75;8.93;;;2.60;99.90;;;;;;5008308;28;20080;-61
2023/01/23 08:42:12;;;;;;;14.73;8.63;;;2.70;99.90;;;;;;5044554;28;20041;-61
2023/01/23 08:44:38;;;;;;;10.50;8.18;;;2.70;99.90;;;;;;5026398;28;20047;-60
2023/01/23 08:47:04;;;;;;;14.23;8.45;;;2.70;99.90;;;;;;5045348;28;20052;-61
2023/01/23 08:49:30;;;;;;;13.02;8.40;;;2.70;99.90;;;;;;5046394;28;20107;-61
2023/01/23 08:51:57;;;;;;;11.77;7.78;;;2.70;99.90;;;;;;5026413;28;20040;-61
2023/01/23 08:54:23;;;;;;;13.82;7.70;;;2.70;99.90;;;;;;5018769;28;20053;-61
2023/01/23 08:56:49;;;;;;;14.30;8.15;;;2.70;99.90;;;;;;5044998;28;20041;-61
2023/01/23 08:59:15;;;;;;;12.07;7.57;;;2.80;99.90;;;;;;5041115;28;20041;-61
2023/01/23 09:01:40;;;;;;;11.48;7.25;;;2.80;99.90;;;;;;5039210;28;20468;-62
2023/01/23 09:04:06;;;;;;;10.52;7.00;;;2.80;99.90;;;;;;5045196;28;20052;-62
2023/01/23 09:06:32;;;;;;;11.90;7.25;;;2.90;99.90;;;;;;5002215;28;20055;-62
2023/01/23 09:08:58;;;;;;;9.57;6.55;;;2.80;99.90;;;;;;5043614;28;20113;-62
2023/01/23 09:11:24;;;;;;;10.88;7.18;;;2.80;99.90;;;;;;5042343;28;20072;-61
2023/01/23 09:13:50;;;;;;;9.35;6.55;;;2.90;99.90;;;;;;5045987;28;20092;-61
2023/01/23 09:16:16;;;;;;;11.02;7.18;;;2.90;99.90;;;;;;5044176;28;20041;-62
2023/01/23 09:18:42;;;;;;;12.45;6.65;;;2.90;99.90;;;;;;5045126;28;20052;-62
2023/01/23 09:21:15;;;;;;;12.20;6.25;;;2.90;99.90;;;;;;5016449;28;20037;-62
2023/01/23 09:23:41;;;;;;;9.30;6.15;;;2.90;99.90;;;;;;5009662;28;20369;-62
2023/01/23 09:26:09;;;;;;;9.38;6.45;;;2.90;99.90;;;;;;5040092;28;20056;-62
2023/01/23 09:28:37;;;;;;;9.32;6.13;;;2.90;99.90;;;;;;5044092;28;20282;-62
2023/01/23 09:31:06;;;;;;;7.70;5.63;;;3.00;99.90;;;;;;5043610;28;20150;-62
2023/01/23 09:33:33;;;;;;;8.07;5.80;;;3.00;99.90;;;;;;5045763;28;20045;-61
2023/01/23 09:35:59;;;;;;;7.30;5.35;;;2.90;99.90;;;;;;5025654;28;20041;-61
2023/01/23 09:38:25;;;;;;;9.52;5.35;;;3.00;99.90;;;;;;5025514;28;20051;-62
2023/01/23 09:40:57;;;;;;;6.65;5.38;;;3.00;99.90;;;;;;5043140;28;20666;-62
2023/01/23 09:43:39;;;;;;;7.20;5.50;;;3.00;99.90;;;;;;5011146;28;20047;-62
2023/01/23 09:46:14;;;;;;;9.45;5.78;;;3.00;99.90;;;;;;5043225;28;20450;-62
2023/01/23 09:48:45;;;;;;;6.47;4.90;;;3.00;99.90;;;;;;5045905;28;20052;-62
2023/01/23 09:51:24;;;;;;;7.78;5.25;;;3.10;99.90;;;;;;5025277;28;20518;-62
2023/01/23 09:53:53;;;;;;;8.57;5.60;;;3.10;99.90;;;;;;5024720;28;20124;-61
2023/01/23 09:56:32;;;;;;;5.65;4.80;;;3.10;99.90;;;;;;5044443;28;20486;-62
2023/01/23 09:59:01;;;;;;;8.68;5.50;;;3.10;99.90;;;;;;5044710;28;20044;-62
2023/01/23 10:01:31;;;;;;;7.30;5.13;;;3.10;99.90;;;;;;5044565;28;20123;-62
2023/01/23 10:04:01;;;;;;;8.57;5.90;;;3.10;99.90;;;;;;5044215;28;20048;-61
2023/01/23 10:06:30;;;;;;;7.95;5.80;;;3.10;99.90;;;;;;5045620;28;20052;-62
2023/01/23 10:09:05;;;;;;;10.43;6.25;;;3.20;99.90;;;;;;5041302;28;20672;-62
2023/01/23 10:11:41;;;;;;;11.60;7.25;;;3.20;99.90;;;;;;5041817;28;20045;-62
2023/01/23 10:14:38;;;;;;;10.00;7.38;;;3.20;99.90;;;;;;5016277;28;20098;-62
2023/01/23 10:17:19;;;;;;;11.95;7.47;;;3.20;99.90;;;;;;5043572;28;20406;-62
2023/01/23 10:19:58;;;;;;;11.70;8.30;;;3.20;99.90;;;;;;5040770;28;20076;-61
2023/01/23 10:22:46;;;;;;;10.00;8.15;;;3.20;99.90;;;;;;5045265;28;20483;-62
2023/01/23 10:25:22;;;;;;;11.55;7.50;;;3.30;99.90;;;;;;5042777;28;20048;-61
2023/01/23 10:27:50;;;;;;;11.50;7.30;;;3.30;99.90;;;;;;4994488;28;20054;-62
2023/01/23 10:30:29;;;;;;;9.85;6.80;;;3.30;99.90;;;;;;5003180;28;20049;-62
2023/01/23 10:33:01;;;;;;;8.32;6.57;;;3.40;99.90;;;;;;5001988;28;20083;-62
2023/01/23 10:35:43;;;;;;;11.65;7.10;;;3.30;99.90;;;;;;5005341;28;20092;-62
2023/01/23 10:38:42;;;;;;;12.68;7.65;;;3.40;99.90;;;;;;5001651;28;20052;-62
2023/01/23 10:41:12;;;;;;;16.85;8.77;;;3.40;99.90;;;;;;5004660;28;20041;-61
2023/01/23 10:43:57;;;;;;;13.98;8.15;;;3.40;99.90;;;;;;5001214;28;20037;-62
2023/01/23 10:46:26;;;;;;;12.20;8.30;;;3.40;99.90;;;;;;4998137;28;20042;-62
2023/01/23 10:48:53;;;;;;;12.63;8.30;;;3.40;99.90;;;;;;5003941;28;20228;-61
2023/01/23 10:51:37;;;;;;;14.60;8.95;;;3.50;99.90;;;;;;5002377;28;20527;-62
2023/01/23 10:54:09;;;;;;;14.85;8.88;;;3.50;99.90;;;;;;5002394;28;20041;-62
2023/01/23 10:57:07;;;;;;;12.83;9.50;;;3.50;99.90;;;;;;5005294;28;20088;-62
2023/01/23 10:59:49;;;;;;;12.48;8.63;;;3.60;99.90;;;;;;4936690;28;20060;-60
2023/01/23 11:02:34;;;;;;;14.63;9.17;;;3.60;99.90;;;;;;5008138;28;20484;-62
2023/01/23 11:05:00;;;;;;;14.02;9.32;;;3.60;99.90;;;;;;5007626;28;20328;-61
2023/01/23 11:07:31;;;;;;;15.80;9.40;;;3.70;99.90;;;;;;5005156;28;20053;-62
2023/01/23 11:09:58;;;;;;;16.15;9.40;;;3.60;99.90;;;;;;5007788;28;20049;-62
2023/01/23 11:12:29;;;;;;;15.25;9.05;;;3.60;99.90;;;;;;5007885;28;20046;-62
2023/01/23 11:15:37;;;;;;;15.07;9.30;;;3.70;99.90;;;;;;5006708;28;22377;-62
2023/01/23 11:18:33;;;;;;;16.50;9.63;;;3.70;99.90;;;;;;5006809;28;20038;-62
2023/01/23 11:21:00;;;;;;;17.50;9.77;;;3.70;99.90;;;;;;5006021;28;20472;-62
2023/01/23 11:23:26;;;;;;;13.50;9.95;;;3.80;99.90;;;;;;5005938;28;20056;-62
2023/01/23 11:25:54;;;;;;;17.17;9.98;;;3.80;99.90;;;;;;5014123;28;20067;-61
2023/01/23 11:28:26;;;;;;;14.38;10.02;;;3.80;99.90;;;;;;5047240;28;20148;-61
2023/01/23 11:31:01;;;;;;;16.75;10.65;;;3.80;99.90;;;;;;5047833;28;20044;-61
2023/01/23 11:33:51;;;;;;;13.57;9.25;;;3.80;99.90;;;;;;5047002;28;20124;-62
2023/01/23 11:36:16;;;;;;;16.40;10.10;;;3.80;99.90;;;;;;5047183;28;20041;-62
2023/01/23 11:38:55;;;;;;;17.30;10.32;;;3.80;99.90;;;;;;5045332;28;20056;-61
2023/01/23 11:41:30;;;;;;;17.40;10.02;;;3.90;99.90;;;;;;5047552;28;20048;-62
2023/01/23 11:43:56;;;;;;;17.27;9.68;;;3.90;99.90;;;;;;5048292;28;20044;-62
2023/01/23 11:46:29;;;;;;;16.38;10.07;;;3.90;99.90;;;;;;5047105;28;20055;-62
2023/01/23 11:49:18;;;;;;;14.18;9.45;;;4.00;99.90;;;;;;5047921;28;20091;-61
2023/01/23 11:52:07;;;;;;;15.48;10.27;;;4.00;99.90;;;;;;5026751;28;20064;-62
2023/01/23 11:54:55;;;;;;;15.20;9.48;;;4.00;99.90;;;;;;5044993;28;20098;-62
2023/01/23 11:57:38;;;;;;;14.43;9.25;;;4.00;99.90;;;;;;5047200;28;20124;-61
2023/01/23 12:00:33;;;;;;;16.30;9.60;;;4.10;99.90;;;;;;5046628;28;20110;-62
2023/01/23 12:02:59;;;;;;;14.32;9.93;;;4.10;99.90;;;;;;5028647;28;20103;-62
2023/01/23 12:05:52;;;;;;;13.77;9.40;;;4.10;99.90;;;;;;5044944;28;20499;-62
2023/01/23 12:08:36;;;;;;;;;;;4.20;99.90;;;;;;5046438;28;20045;-62
2023/01/23 12:11:15;;;;;;;14.18;9.02;;;4.20;99.90;;;;;;5028037;28;20030;-62
2023/01/23 12:13:43;;;;;;;12.85;8.77;;;4.20;99.90;;;;;;5029888;28;20056;-62
2023/01/23 12:16:15;;;;;;;12.05;8.63;;;4.20;99.90;;;;;;5047194;28;20091;-62
2023/01/23 12:18:48;;;;;;;14.48;9.55;;;4.30;99.90;;;;;;5046209;28;20064;-62
2023/01/23 12:21:18;;;;;;;15.90;9.80;;;4.30;99.90;;;;;;5029030;28;20041;-62
2023/01/23 12:24:13;;;;;;;14.75;10.20;;;4.30;99.90;;;;;;5042166;28;20053;-62
2023/01/23 12:27:00;;;;;;;14.57;10.38;;;4.30;99.90;;;;;;5029011;28;20134;-62
2023/01/23 12:29:47;;;;;;;13.57;9.73;;;4.30;99.90;;;;;;5029173;28;20091;-61
2023/01/23 12:32:28;;;;;;;17.05;9.32;;;4.30;99.90;;;;;;5029752;28;20087;-61
2023/01/23 12:34:56;;;;;;;14.77;9.25;;;4.30;99.90;;;;;;5046584;28;20119;-62
2023/01/23 12:37:36;;;;;;;13.13;9.38;;;4.30;99.90;;;;;;5043999;28;20049;-62
2023/01/23 12:40:09;;;;;;;13.07;9.93;;;4.30;99.90;;;;;;5028351;28;20056;-62
2023/01/23 12:43:10;;;;;;;16.15;10.10;;;4.30;99.90;;;;;;5045916;28;20617;-62
2023/01/23 12:45:45;;;;;;;17.75;10.63;;;4.30;99.90;;;;;;5045323;28;20052;-62
2023/01/23 12:48:36;;;;;;;13.88;8.75;;;4.30;99.90;;;;;;5046669;28;20575;-62
2023/01/23 12:51:20;;;;;;;13.82;8.93;;;4.20;99.90;;;;;;5044399;28;20060;-62
2023/01/23 12:53:51;;;;;;;13.02;9.30;;;4.20;99.90;;;;;;5026389;28;20052;-62
2023/01/23 12:56:28;;;;;;;9.02;6.40;;;4.20;99.90;;;;;;5022382;28;20041;-62
2023/01/23 12:59:16;;;;;;;5.15;4.05;;;4.20;99.90;;;;;;5028499;28;20033;-62
2023/01/23 13:02:11;;;;;;;8.82;6.90;;;4.10;99.90;;;;;;5026008;28;20056;-62
2023/01/23 13:04:57;;;;;;;8.38;5.80;;;4.00;99.90;;;;;;5045804;28;20073;-62
2023/01/23 13:07:57;;;;;;;9.70;7.15;;;4.00;99.90;;;;;;5027227;28;20044;-62